Time;durP1;ratioP1;P1;durP2;ratioP2;P2;SDS_P1;SDS_P2;PMS_P1;PMS_P2;Temp;Humidity;BMP_temperature;BMP_pressure;BME280_temperature;BME280_humidity;BME280_pressure;Samples;Min_cycle;Max_cycle;Signal;HPM_P1;HPM_P2
2022/11/19 00:01:07;;;;;;;;;6.00;6.00;;;;;;;;5082749;27;61769;-79
2022/11/19 00:03:33;;;;;;;;;6.25;5.75;;;;;;;;5084304;28;61883;-79
2022/11/19 00:06:06;;;;;;;;;7.00;7.00;;;;;;;;5083892;27;61704;-79
2022/11/19 00:08:31;;;;;;;;;10.25;6.75;;;;;;;;5083863;27;61803;-79
2022/11/19 00:11:01;;;;;;;;;12.00;7.00;;;;;;;;5082572;27;61975;-79
2022/11/19 00:13:27;;;;;;;;;8.50;7.25;;;;;;;;5084075;27;61843;-79
2022/11/19 00:15:52;;;;;;;;;6.00;3.00;;;;;;;;5083705;27;61938;-79
2022/11/19 00:18:17;;;;;;;;;8.50;7.25;;;;;;;;5081785;28;61792;-78
2022/11/19 00:20:42;;;;;;;;;7.00;4.00;;;;;;;;5083899;28;61862;-79
2022/11/19 00:23:08;;;;;;;;;5.00;5.00;;;;;;;;5083915;27;61816;-79
2022/11/19 00:25:33;;;;;;;;;7.00;6.00;;;;;;;;5082962;28;61697;-79
2022/11/19 00:27:58;;;;;;;;;6.75;5.25;;;;;;;;5084121;28;61789;-78
2022/11/19 00:30:23;;;;;;;;;6.75;6.75;;;;;;;;5083541;28;62275;-79
2022/11/19 00:32:49;;;;;;;;;6.00;4.00;;;;;;;;5083547;28;62009;-79
2022/11/19 00:35:14;;;;;;;;;3.25;3.25;;;;;;;;5081768;27;61986;-79
2022/11/19 00:37:40;;;;;;;;;6.50;4.00;;;;;;;;5063583;28;61864;-79
2022/11/19 00:40:06;;;;;;;;;5.00;5.00;;;;;;;;5063321;28;62013;-79
2022/11/19 00:42:32;;;;;;;;;7.00;6.50;;;;;;;;5063378;28;62149;-79
2022/11/19 00:44:57;;;;;;;;;7.75;3.75;;;;;;;;5061031;28;64622;-78
2022/11/19 00:47:22;;;;;;;;;7.25;6.50;;;;;;;;5061265;28;61810;-79
2022/11/19 00:49:48;;;;;;;;;5.00;3.00;;;;;;;;5062833;28;61785;-79
2022/11/19 00:52:13;;;;;;;;;3.75;3.75;;;;;;;;5063377;28;62102;-79
2022/11/19 00:54:38;;;;;;;;;4.50;3.75;;;;;;;;5080018;27;62832;-79
2022/11/19 00:57:03;;;;;;;;;6.75;5.00;;;;;;;;5083109;28;61943;-79
2022/11/19 00:59:29;;;;;;;;;7.00;4.00;;;;;;;;5083159;27;61613;-79
2022/11/19 01:01:54;;;;;;;;;5.50;5.50;;;;;;;;5083335;28;61911;-79
2022/11/19 01:04:19;;;;;;;;;7.25;4.00;;;;;;;;5082779;27;61785;-78
2022/11/19 01:06:44;;;;;;;;;5.50;4.50;;;;;;;;5083259;27;61916;-79
2022/11/19 01:09:10;;;;;;;;;5.50;5.50;;;;;;;;5082963;28;61818;-79
2022/11/19 01:11:35;;;;;;;;;4.00;3.25;;;;;;;;5082799;27;61838;-79
2022/11/19 01:14:02;;;;;;;;;6.00;4.00;;;;;;;;5081875;27;61691;-78
2022/11/19 01:16:32;;;;;;;;;6.00;4.75;;;;;;;;5082859;28;62458;-79
2022/11/19 01:18:58;;;;;;;;;4.50;3.00;;;;;;;;5081500;27;62203;-78
2022/11/19 01:21:24;;;;;;;;;11.25;6.00;;;;;;;;5081639;27;61973;-79
2022/11/19 01:23:50;;;;;;;;;6.00;5.50;;;;;;;;5082494;28;61950;-79
2022/11/19 01:26:16;;;;;;;;;4.25;4.25;;;;;;;;5082768;27;61898;-79
2022/11/19 01:28:42;;;;;;;;;0.25;0.00;;;;;;;;5082615;28;61780;-79
2022/11/19 01:31:08;;;;;;;;;7.00;3.75;;;;;;;;5081319;28;62138;-79
2022/11/19 01:33:34;;;;;;;;;8.75;4.00;;;;;;;;5080587;28;63700;-79
2022/11/19 01:36:01;;;;;;;;;6.25;4.25;;;;;;;;5074218;27;61840;-79
2022/11/19 01:38:27;;;;;;;;;3.50;3.50;;;;;;;;5062407;28;61892;-79
2022/11/19 01:40:52;;;;;;;;;7.25;3.50;;;;;;;;5061232;28;61789;-78
2022/11/19 01:43:18;;;;;;;;;8.75;4.25;;;;;;;;5060419;28;61969;-79
2022/11/19 01:45:47;;;;;;;;;6.00;4.00;;;;;;;;5061906;28;61879;-79
2022/11/19 01:48:22;;;;;;;;;7.75;3.00;;;;;;;;5062811;28;61939;-79
2022/11/19 01:50:50;;;;;;;;;2.00;2.00;;;;;;;;5062062;28;61705;-79
2022/11/19 01:53:15;;;;;;;;;2.00;2.00;;;;;;;;5066109;28;61962;-79
2022/11/19 01:55:43;;;;;;;;;3.00;3.00;;;;;;;;5081798;27;62328;-79
2022/11/19 01:58:09;;;;;;;;;2.50;2.50;;;;;;;;5081365;27;61875;-78
2022/11/19 02:00:34;;;;;;;;;2.75;2.75;;;;;;;;5081970;27;61909;-79
2022/11/19 02:03:00;;;;;;;;;7.25;3.75;;;;;;;;5081898;28;61843;-79
2022/11/19 02:05:25;;;;;;;;;3.00;3.00;;;;;;;;5081090;27;62059;-79
2022/11/19 02:07:56;;;;;;;;;9.75;3.00;;;;;;;;5080810;27;61694;-78
2022/11/19 02:10:40;;;;;;;;;3.25;3.25;;;;;;;;5080679;28;62180;-78
2022/11/19 02:13:23;;;;;;;;;7.00;4.50;;;;;;;;5080464;28;62009;-79
2022/11/19 02:15:48;;;;;;;;;4.25;3.00;;;;;;;;5080636;27;62029;-78
2022/11/19 02:18:27;;;;;;;;;3.00;3.00;;;;;;;;5082454;28;61767;-79
2022/11/19 02:21:11;;;;;;;;;4.50;2.00;;;;;;;;5082386;27;61696;-79
2022/11/19 02:23:52;;;;;;;;;3.75;3.75;;;;;;;;5081448;28;61800;-79
2022/11/19 02:26:26;;;;;;;;;4.25;4.25;;;;;;;;5079369;28;61854;-79
2022/11/19 02:28:53;;;;;;;;;5.50;3.50;;;;;;;;5081642;28;61750;-79
2022/11/19 02:31:24;;;;;;;;;7.00;2.50;;;;;;;;5082611;28;61958;-79
2022/11/19 02:34:03;;;;;;;;;5.75;3.75;;;;;;;;5080930;28;61836;-78
2022/11/19 02:36:36;;;;;;;;;4.25;3.00;;;;;;;;5069170;27;61845;-79
2022/11/19 02:39:13;;;;;;;;;7.25;4.00;;;;;;;;5061443;28;62106;-78
2022/11/19 02:41:43;;;;;;;;;3.50;3.50;;;;;;;;5061574;28;61736;-79
2022/11/19 02:47:21;;;;;;;;;11.50;4.75;;;;;;;;5061797;28;62116;-79
2022/11/19 02:49:47;;;;;;;;;8.75;5.50;;;;;;;;5060927;28;61741;-79
2022/11/19 02:52:13;;;;;;;;;5.00;5.00;;;;;;;;5060325;28;62158;-79
2022/11/19 02:54:39;;;;;;;;;3.50;3.00;;;;;;;;5078311;27;61756;-79
2022/11/19 02:57:04;;;;;;;;;2.00;2.00;;;;;;;;5080796;28;62008;-78
2022/11/19 03:05:12;;;;;;;;;6.00;2.75;;;;;;;;5080876;27;62419;-78
2022/11/19 03:07:37;;;;;;;;;9.00;2.00;;;;;;;;5081901;28;62440;-78
2022/11/19 03:10:05;;;;;;;;;5.50;2.25;;;;;;;;5081185;28;61744;-78
2022/11/19 03:12:34;;;;;;;;;4.00;3.00;;;;;;;;5081125;28;61737;-79
2022/11/19 03:17:49;;;;;;;;;2.00;2.00;;;;;;;;5060878;28;61999;-78
2022/11/19 03:20:27;;;;;;;;;4.50;2.75;;;;;;;;5059548;28;61781;-79
2022/11/19 03:22:56;;;;;;;;;5.00;3.00;;;;;;;;5061235;28;62135;-78
2022/11/19 03:25:25;;;;;;;;;5.00;3.00;;;;;;;;5060166;28;61955;-79
2022/11/19 03:27:53;;;;;;;;;3.50;3.50;;;;;;;;5060486;28;61714;-79
2022/11/19 03:30:19;;;;;;;;;5.50;2.75;;;;;;;;5059734;28;61913;-79
2022/11/19 03:32:50;;;;;;;;;6.00;3.00;;;;;;;;5061486;28;61792;-79
2022/11/19 03:35:21;;;;;;;;;3.25;3.25;;;;;;;;5060459;27;62017;-79
2022/11/19 03:37:49;;;;;;;;;6.50;4.50;;;;;;;;5064099;28;61761;-79
2022/11/19 03:40:15;;;;;;;;;6.75;3.75;;;;;;;;5062177;28;61940;-79
2022/11/19 03:42:42;;;;;;;;;4.50;3.00;;;;;;;;5064284;28;62026;-79
2022/11/19 03:45:10;;;;;;;;;6.00;3.50;;;;;;;;5063594;28;61955;-78
2022/11/19 03:47:37;;;;;;;;;10.25;5.00;;;;;;;;5064194;28;61948;-79
2022/11/19 03:50:22;;;;;;;;;6.00;2.50;;;;;;;;5063526;28;61771;-78
2022/11/19 03:52:48;;;;;;;;;14.50;3.50;;;;;;;;5022013;28;61842;-79
2022/11/19 03:55:15;;;;;;;;;2.75;2.75;;;;;;;;5081264;28;62557;-79
2022/11/19 03:57:41;;;;;;;;;5.00;4.50;;;;;;;;5084135;28;61679;-78
2022/11/19 04:00:06;;;;;;;;;4.50;3.00;;;;;;;;5082905;28;61869;-79
2022/11/19 04:02:32;;;;;;;;;3.00;3.00;;;;;;;;5083456;28;61770;-79
2022/11/19 04:04:57;;;;;;;;;3.00;3.00;;;;;;;;5083768;28;61739;-79
2022/11/19 04:07:23;;;;;;;;;4.00;3.00;;;;;;;;5084406;28;62312;-79
2022/11/19 04:09:48;;;;;;;;;2.50;2.00;;;;;;;;5083866;27;61918;-78
2022/11/19 04:12:15;;;;;;;;;2.00;2.00;;;;;;;;5082365;28;61734;-79
2022/11/19 04:14:40;;;;;;;;;2.75;2.25;;;;;;;;5083835;28;61826;-79
2022/11/19 04:17:05;;;;;;;;;2.00;2.00;;;;;;;;5084134;28;61868;-79
2022/11/19 04:19:31;;;;;;;;;7.00;3.00;;;;;;;;5082310;28;61959;-78
2022/11/19 04:21:56;;;;;;;;;2.75;2.75;;;;;;;;5084288;28;62055;-79
2022/11/19 04:24:21;;;;;;;;;6.00;3.00;;;;;;;;5082582;28;62693;-78
2022/11/19 04:26:47;;;;;;;;;3.75;3.00;;;;;;;;5082454;27;61966;-79
2022/11/19 04:29:12;;;;;;;;;4.00;1.00;;;;;;;;5082488;28;61806;-79
2022/11/19 04:31:37;;;;;;;;;5.25;5.00;;;;;;;;5084410;28;61870;-79
2022/11/19 04:34:03;;;;;;;;;2.75;1.75;;;;;;;;5083281;28;63231;-78
2022/11/19 04:36:28;;;;;;;;;6.75;4.00;;;;;;;;5072039;27;62033;-78
2022/11/19 04:38:53;;;;;;;;;6.00;3.50;;;;;;;;5063499;28;61942;-78
2022/11/19 04:41:19;;;;;;;;;1.75;1.75;;;;;;;;5061852;28;61835;-79
2022/11/19 04:43:44;;;;;;;;;4.00;2.00;;;;;;;;5062853;28;61829;-79
2022/11/19 04:46:09;;;;;;;;;6.00;3.25;;;;;;;;5061905;28;61926;-79
2022/11/19 04:48:34;;;;;;;;;6.75;3.00;;;;;;;;5061078;28;62041;-79
2022/11/19 04:51:00;;;;;;;;;1.75;1.75;;;;;;;;5063882;28;62148;-79
2022/11/19 04:53:25;;;;;;;;;4.00;3.00;;;;;;;;5067569;28;63883;-78
2022/11/19 04:55:50;;;;;;;;;2.00;2.00;;;;;;;;5082186;28;62060;-79
2022/11/19 04:58:16;;;;;;;;;5.25;2.00;;;;;;;;5083588;27;61763;-79
2022/11/19 05:00:41;;;;;;;;;3.50;2.50;;;;;;;;5082302;27;62096;-79
2022/11/19 05:03:06;;;;;;;;;2.00;2.00;;;;;;;;5082868;28;61704;-79
2022/11/19 05:05:31;;;;;;;;;5.50;3.50;;;;;;;;5081837;28;61978;-79
2022/11/19 05:07:57;;;;;;;;;5.00;2.75;;;;;;;;5083157;27;61862;-78
2022/11/19 05:10:22;;;;;;;;;2.25;2.25;;;;;;;;5082633;28;61729;-78
2022/11/19 05:12:47;;;;;;;;;6.25;2.75;;;;;;;;5082609;27;61752;-79
2022/11/19 05:15:13;;;;;;;;;7.00;3.00;;;;;;;;5083360;27;61994;-79
2022/11/19 05:17:38;;;;;;;;;4.00;3.00;;;;;;;;5081814;27;61837;-79
2022/11/19 05:20:03;;;;;;;;;6.00;3.25;;;;;;;;5081386;27;61757;-78
2022/11/19 05:22:29;;;;;;;;;2.75;2.75;;;;;;;;5082098;27;61811;-78
2022/11/19 05:24:54;;;;;;;;;3.25;3.25;;;;;;;;5081828;27;61860;-79
2022/11/19 05:27:19;;;;;;;;;6.00;4.00;;;;;;;;5082742;28;61866;-79
2022/11/19 05:29:44;;;;;;;;;3.25;2.50;;;;;;;;5083135;28;61704;-79
2022/11/19 05:32:11;;;;;;;;;6.00;4.00;;;;;;;;5081205;27;61947;-78
2022/11/19 05:34:37;;;;;;;;;6.75;4.00;;;;;;;;5082564;27;61799;-79
2022/11/19 05:37:04;;;;;;;;;3.00;3.00;;;;;;;;5066535;27;61967;-78
2022/11/19 05:39:29;;;;;;;;;8.50;4.00;;;;;;;;5062191;28;62046;-79
2022/11/19 05:41:54;;;;;;;;;4.00;4.00;;;;;;;;5059999;28;62037;-79
2022/11/19 05:44:19;;;;;;;;;4.25;3.25;;;;;;;;5081274;27;61978;-79
2022/11/19 05:46:45;;;;;;;;;3.00;3.00;;;;;;;;5082641;28;61928;-79
2022/11/19 05:49:10;;;;;;;;;3.00;3.00;;;;;;;;5081309;28;61952;-79
2022/11/19 05:51:36;;;;;;;;;3.25;3.00;;;;;;;;5081325;28;61790;-78
2022/11/19 05:54:01;;;;;;;;;4.00;4.00;;;;;;;;5082453;27;61929;-79
2022/11/19 05:56:26;;;;;;;;;4.75;3.25;;;;;;;;5080780;27;61944;-78
2022/11/19 05:58:51;;;;;;;;;6.00;5.00;;;;;;;;5082231;28;61661;-78
2022/11/19 06:01:23;;;;;;;;;3.00;3.00;;;;;;;;5082042;28;62677;-79
2022/11/19 06:03:48;;;;;;;;;3.50;3.00;;;;;;;;5082013;28;61760;-79
2022/11/19 06:06:13;;;;;;;;;6.00;3.75;;;;;;;;5080703;28;62220;-78
2022/11/19 06:08:39;;;;;;;;;4.00;3.50;;;;;;;;5080876;27;61998;-79
2022/11/19 06:11:04;;;;;;;;;3.75;3.50;;;;;;;;5079966;28;63785;-79
2022/11/19 06:13:29;;;;;;;;;2.50;2.50;;;;;;;;5082443;28;61774;-79
2022/11/19 06:15:55;;;;;;;;;7.50;4.00;;;;;;;;5081895;27;62058;-78
2022/11/19 06:18:20;;;;;;;;;7.75;5.50;;;;;;;;5081222;27;61914;-79
2022/11/19 06:20:45;;;;;;;;;5.25;5.00;;;;;;;;5080335;28;61811;-78
2022/11/19 06:23:10;;;;;;;;;4.00;4.00;;;;;;;;5082429;27;62054;-79
2022/11/19 06:25:36;;;;;;;;;6.00;4.00;;;;;;;;5080432;28;62042;-79
2022/11/19 06:28:01;;;;;;;;;5.50;3.00;;;;;;;;5082291;28;62049;-79
2022/11/19 06:30:26;;;;;;;;;12.25;9.00;;;;;;;;5081347;28;61933;-78
2022/11/19 06:32:52;;;;;;;;;7.00;4.50;;;;;;;;5081456;28;62106;-79
2022/11/19 06:35:17;;;;;;;;;4.50;4.00;;;;;;;;5080160;27;62044;-78
2022/11/19 06:37:42;;;;;;;;;8.50;3.75;;;;;;;;5060335;28;61827;-79
2022/11/19 06:40:08;;;;;;;;;3.00;3.00;;;;;;;;5059425;28;62101;-79
2022/11/19 06:42:36;;;;;;;;;3.75;2.75;;;;;;;;5061438;28;61909;-79
2022/11/19 06:45:05;;;;;;;;;4.00;4.00;;;;;;;;5061384;28;61828;-79
2022/11/19 06:47:31;;;;;;;;;4.00;4.00;;;;;;;;5060448;28;61998;-79
2022/11/19 06:49:56;;;;;;;;;3.75;3.25;;;;;;;;5058015;28;61778;-79
2022/11/19 06:52:22;;;;;;;;;4.00;4.00;;;;;;;;5060379;28;61946;-79
2022/11/19 06:54:47;;;;;;;;;4.50;4.50;;;;;;;;5080314;28;61946;-79
2022/11/19 06:57:12;;;;;;;;;7.00;6.50;;;;;;;;5081542;27;61838;-79
2022/11/19 06:59:38;;;;;;;;;4.50;4.50;;;;;;;;5079557;28;64489;-78
2022/11/19 07:02:03;;;;;;;;;7.00;5.00;;;;;;;;5079772;27;61719;-82
2022/11/19 07:04:29;;;;;;;;;7.00;3.75;;;;;;;;5081429;28;61839;-81
2022/11/19 07:06:54;;;;;;;;;8.00;6.75;;;;;;;;5081610;27;61955;-80
2022/11/19 07:09:19;;;;;;;;;6.75;6.00;;;;;;;;5078986;27;61967;-82
2022/11/19 07:11:44;;;;;;;;;5.00;3.50;;;;;;;;5082248;28;61851;-82
2022/11/19 07:14:10;;;;;;;;;5.50;5.50;;;;;;;;5083300;27;61726;-79
2022/11/19 07:16:35;;;;;;;;;6.50;6.00;;;;;;;;5083126;27;62189;-79
2022/11/19 07:19:02;;;;;;;;;6.50;4.50;;;;;;;;5082683;27;61853;-79
2022/11/19 07:21:28;;;;;;;;;7.50;6.00;;;;;;;;5082960;27;62023;-79
2022/11/19 07:23:54;;;;;;;;;8.75;7.00;;;;;;;;5084704;27;61947;-81
2022/11/19 07:26:20;;;;;;;;;6.00;4.00;;;;;;;;5081728;28;62026;-82
2022/11/19 07:28:45;;;;;;;;;8.00;3.75;;;;;;;;5081552;27;62280;-83
2022/11/19 07:31:10;;;;;;;;;3.75;3.25;;;;;;;;5083941;28;62051;-83
2022/11/19 07:33:38;;;;;;;;;6.75;5.00;;;;;;;;5082455;28;62065;-83
2022/11/19 07:36:03;;;;;;;;;10.00;6.00;;;;;;;;5075201;27;61852;-80
2022/11/19 07:38:29;;;;;;;;;4.00;2.00;;;;;;;;5063567;28;62806;-82
2022/11/19 07:40:54;;;;;;;;;6.00;4.00;;;;;;;;5069646;28;62092;-83
2022/11/19 07:43:20;;;;;;;;;7.00;4.00;;;;;;;;5082753;27;61917;-80
2022/11/19 07:45:45;;;;;;;;;9.00;4.00;;;;;;;;5084176;28;61974;-81
2022/11/19 07:48:10;;;;;;;;;7.00;4.00;;;;;;;;5082715;27;63020;-82
2022/11/19 07:50:36;;;;;;;;;4.75;3.25;;;;;;;;5081873;27;62092;-81
2022/11/19 07:53:01;;;;;;;;;6.25;5.00;;;;;;;;5083008;27;61989;-85
2022/11/19 07:55:27;;;;;;;;;7.00;6.50;;;;;;;;5082592;27;61786;-84
2022/11/19 07:57:52;;;;;;;;;8.00;4.00;;;;;;;;5081226;28;62211;-83
2022/11/19 08:00:18;;;;;;;;;8.50;7.00;;;;;;;;5083900;27;62205;-83
2022/11/19 08:02:43;;;;;;;;;6.00;6.00;;;;;;;;5082570;28;61807;-82
2022/11/19 08:05:08;;;;;;;;;8.00;7.00;;;;;;;;5083500;27;61959;-78
2022/11/19 08:07:36;;;;;;;;;3.00;3.00;;;;;;;;5082304;27;63117;-81
2022/11/19 08:10:01;;;;;;;;;6.25;6.25;;;;;;;;5080594;27;62453;-85
2022/11/19 08:12:28;;;;;;;;;8.75;7.75;;;;;;;;5080979;27;63086;-82
2022/11/19 08:14:53;;;;;;;;;10.00;7.00;;;;;;;;5083838;27;61772;-83
2022/11/19 08:20:02;;;;;;;;;8.50;6.00;;;;;;;;5084172;28;61866;-83
2022/11/19 08:22:28;;;;;;;;;11.00;7.00;;;;;;;;5083658;27;61895;-82
2022/11/19 08:25:00;;;;;;;;;9.25;6.25;;;;;;;;5082277;27;61917;-84
2022/11/19 08:27:25;;;;;;;;;10.00;8.00;;;;;;;;5082698;28;62751;-83
2022/11/19 08:29:50;;;;;;;;;9.25;8.00;;;;;;;;5083543;27;61995;-84
2022/11/19 08:32:16;;;;;;;;;9.25;9.00;;;;;;;;5080599;28;62097;-84
2022/11/19 08:37:45;;;;;;;;;12.00;7.00;;;;;;;;5079956;27;61811;-89
2022/11/19 08:40:11;;;;;;;;;15.75;9.00;;;;;;;;5072784;27;62042;-88
2022/11/19 08:45:21;;;;;;;;;10.25;9.00;;;;;;;;5081404;28;62680;-84
2022/11/19 08:47:47;;;;;;;;;15.25;9.50;;;;;;;;5078474;27;62067;-83
2022/11/19 08:50:12;;;;;;;;;8.00;7.50;;;;;;;;5079525;27;62030;-83
2022/11/19 08:52:39;;;;;;;;;12.75;8.25;;;;;;;;5076317;27;62088;-84
2022/11/19 08:55:05;;;;;;;;;12.75;10.00;;;;;;;;5080742;27;61996;-84
2022/11/19 08:57:31;;;;;;;;;12.75;10.75;;;;;;;;5078548;27;63406;-85
2022/11/19 08:59:56;;;;;;;;;11.00;9.00;;;;;;;;5081226;27;62279;-85
2022/11/19 09:02:22;;;;;;;;;7.75;6.50;;;;;;;;5080299;27;61796;-79
2022/11/19 09:04:50;;;;;;;;;15.50;7.00;;;;;;;;5079985;27;62150;-83
2022/11/19 09:07:19;;;;;;;;;10.25;9.75;;;;;;;;5079020;27;62108;-84
2022/11/19 09:09:44;;;;;;;;;14.75;8.00;;;;;;;;5081350;27;61834;-84
2022/11/19 09:12:09;;;;;;;;;13.00;7.00;;;;;;;;5083196;27;62083;-83
2022/11/19 09:14:35;;;;;;;;;9.75;6.50;;;;;;;;5080096;27;62388;-83
2022/11/19 09:17:00;;;;;;;;;8.75;5.50;;;;;;;;5082178;27;61674;-82
2022/11/19 09:19:25;;;;;;;;;7.00;7.00;;;;;;;;5081548;27;61906;-83
2022/11/19 09:21:51;;;;;;;;;9.00;7.75;;;;;;;;5082052;27;61850;-83
2022/11/19 09:24:17;;;;;;;;;9.00;6.50;;;;;;;;5082855;28;62422;-83
2022/11/19 09:26:45;;;;;;;;;4.25;4.25;;;;;;;;5081179;27;62959;-84
2022/11/19 09:29:10;;;;;;;;;5.00;4.00;;;;;;;;5081886;27;61999;-84
2022/11/19 09:31:36;;;;;;;;;9.00;7.50;;;;;;;;5081982;27;62518;-85
2022/11/19 09:34:02;;;;;;;;;9.75;6.50;;;;;;;;5082492;27;61852;-84
2022/11/19 09:36:28;;;;;;;;;4.00;4.00;;;;;;;;5070894;27;61830;-83
2022/11/19 09:38:56;;;;;;;;;7.00;7.00;;;;;;;;5062157;28;62186;-83
2022/11/19 09:41:42;;;;;;;;;12.25;9.00;;;;;;;;5061191;28;61908;-84
2022/11/19 09:44:16;;;;;;;;;8.00;5.00;;;;;;;;5079875;27;61930;-84
2022/11/19 09:47:07;;;;;;;;;8.00;6.75;;;;;;;;5080966;27;63489;-84
2022/11/19 09:49:44;;;;;;;;;10.00;7.25;;;;;;;;5080961;27;62073;-85
2022/11/19 09:52:12;;;;;;;;;9.00;7.75;;;;;;;;5082681;27;61677;-85
2022/11/19 09:54:48;;;;;;;;;7.25;7.25;;;;;;;;5080895;27;62041;-84
2022/11/19 09:57:23;;;;;;;;;9.75;5.75;;;;;;;;5080412;28;64056;-83
2022/11/19 09:59:50;;;;;;;;;8.25;6.50;;;;;;;;5080392;27;61931;-83
2022/11/19 10:02:17;;;;;;;;;9.25;8.00;;;;;;;;5081028;27;62068;-84
2022/11/19 10:04:43;;;;;;;;;12.00;8.00;;;;;;;;5079493;27;62036;-84
2022/11/19 10:07:09;;;;;;;;;7.25;5.00;;;;;;;;5079560;27;61759;-83
2022/11/19 10:09:34;;;;;;;;;8.75;6.00;;;;;;;;5079844;27;61871;-83
2022/11/19 10:11:59;;;;;;;;;10.25;8.00;;;;;;;;5080733;27;61971;-83
2022/11/19 10:14:41;;;;;;;;;8.25;4.75;;;;;;;;5082765;28;61866;-83
2022/11/19 10:17:07;;;;;;;;;9.00;6.50;;;;;;;;5080801;28;62661;-82
2022/11/19 10:19:59;;;;;;;;;5.50;5.50;;;;;;;;5080093;27;61905;-83
2022/11/19 10:22:33;;;;;;;;;6.50;5.50;;;;;;;;5082570;27;61752;-82
2022/11/19 10:25:11;;;;;;;;;8.00;6.00;;;;;;;;5080868;27;61792;-82
2022/11/19 10:27:41;;;;;;;;;9.75;7.50;;;;;;;;5081269;28;62064;-83
2022/11/19 10:30:13;;;;;;;;;7.00;7.00;;;;;;;;5080381;27;62309;-83
2022/11/19 10:32:40;;;;;;;;;10.25;7.50;;;;;;;;5082329;27;62124;-83
2022/11/19 10:35:10;;;;;;;;;9.75;7.00;;;;;;;;5079984;28;62061;-88
2022/11/19 10:37:40;;;;;;;;;9.25;9.00;;;;;;;;5060982;28;61986;-85
2022/11/19 10:40:17;;;;;;;;;6.25;4.50;;;;;;;;5061489;28;61685;-82
2022/11/19 10:42:48;;;;;;;;;3.75;3.00;;;;;;;;5071934;28;61887;-84
2022/11/19 10:45:32;;;;;;;;;7.50;6.75;;;;;;;;5078295;28;62063;-87
2022/11/19 10:48:12;;;;;;;;;10.25;5.75;;;;;;;;5076326;28;62359;-81
2022/11/19 10:50:38;;;;;;;;;11.50;8.00;;;;;;;;5079721;28;62183;-83
2022/11/19 10:53:13;;;;;;;;;7.25;7.25;;;;;;;;5077934;27;63086;-80
2022/11/19 10:55:53;;;;;;;;;7.00;7.00;;;;;;;;5076230;28;62194;-81
2022/11/19 10:58:28;;;;;;;;;4.75;4.75;;;;;;;;5079058;28;61890;-83
2022/11/19 11:00:54;;;;;;;;;9.50;5.75;;;;;;;;5080748;28;61895;-83
2022/11/19 11:03:49;;;;;;;;;11.00;7.00;;;;;;;;5078767;28;61720;-83
2022/11/19 11:06:15;;;;;;;;;11.50;7.50;;;;;;;;5057043;28;61816;-80
2022/11/19 11:08:48;;;;;;;;;9.75;6.75;;;;;;;;5081029;27;62607;-84
2022/11/19 11:11:20;;;;;;;;;10.75;8.00;;;;;;;;5080188;27;61946;-86
2022/11/19 11:16:43;;;;;;;;;8.00;7.00;;;;;;;;5078852;28;61834;-83
2022/11/19 11:19:13;;;;;;;;;11.25;8.75;;;;;;;;5075218;28;61974;-79
2022/11/19 11:21:39;;;;;;;;;10.25;9.00;;;;;;;;5079747;28;62086;-78
2022/11/19 11:24:04;;;;;;;;;9.50;8.50;;;;;;;;5079734;28;62118;-78
2022/11/19 11:26:32;;;;;;;;;9.25;5.25;;;;;;;;5081053;28;61974;-81
2022/11/19 11:28:57;;;;;;;;;4.00;4.00;;;;;;;;5079719;28;64120;-83
2022/11/19 11:31:30;;;;;;;;;11.75;10.00;;;;;;;;5080940;27;61757;-79
2022/11/19 11:33:56;;;;;;;;;14.50;9.50;;;;;;;;5081816;28;61969;-79
2022/11/19 11:36:24;;;;;;;;;13.00;9.00;;;;;;;;5071117;27;61928;-80
2022/11/19 11:38:54;;;;;;;;;4.50;4.25;;;;;;;;5059234;28;61872;-84
2022/11/19 11:41:21;;;;;;;;;6.00;6.00;;;;;;;;5061152;28;62153;-83
2022/11/19 11:44:00;;;;;;;;;5.25;5.00;;;;;;;;5080043;28;61859;-81
2022/11/19 11:46:37;;;;;;;;;3.25;2.25;;;;;;;;5075958;28;61731;-81
2022/11/19 11:49:03;;;;;;;;;3.75;3.25;;;;;;;;5078600;28;62394;-82
2022/11/19 11:51:38;;;;;;;;;8.50;2.75;;;;;;;;5078717;28;61871;-83
2022/11/19 11:54:17;;;;;;;;;5.50;5.50;;;;;;;;5076829;27;61879;-79
2022/11/19 11:56:44;;;;;;;;;4.00;2.50;;;;;;;;5076470;27;62186;-80
2022/11/19 11:59:20;;;;;;;;;8.00;6.00;;;;;;;;5080474;27;61900;-80
2022/11/19 12:01:52;;;;;;;;;6.50;3.75;;;;;;;;5080584;28;61682;-82
2022/11/19 12:04:18;;;;;;;;;4.75;3.25;;;;;;;;5081438;27;61777;-82
2022/11/19 12:06:50;;;;;;;;;5.00;4.50;;;;;;;;5080910;28;61852;-79
2022/11/19 12:09:26;;;;;;;;;4.00;4.00;;;;;;;;5078808;28;63967;-83
2022/11/19 12:12:01;;;;;;;;;6.00;6.00;;;;;;;;5075834;27;62424;-79
2022/11/19 12:14:26;;;;;;;;;6.00;5.50;;;;;;;;5080351;28;61904;-85
2022/11/19 12:17:04;;;;;;;;;5.50;4.75;;;;;;;;5082633;27;61758;-85
2022/11/19 12:19:40;;;;;;;;;2.50;2.00;;;;;;;;5080772;27;61909;-84
2022/11/19 12:22:05;;;;;;;;;2.50;2.00;;;;;;;;5080439;27;61824;-83
2022/11/19 12:24:37;;;;;;;;;2.25;2.00;;;;;;;;5069691;28;61915;-85
2022/11/19 12:27:21;;;;;;;;;3.25;3.25;;;;;;;;5079063;27;63022;-84
2022/11/19 12:30:22;;;;;;;;;5.00;3.00;;;;;;;;5079420;27;62833;-81
2022/11/19 12:32:59;;;;;;;;;3.50;2.25;;;;;;;;5029307;28;62278;-80
2022/11/19 12:35:24;;;;;;;;;4.00;2.50;;;;;;;;5020621;28;61987;-80
2022/11/19 12:37:50;;;;;;;;;3.00;3.00;;;;;;;;5038411;28;62151;-80
2022/11/19 12:40:15;;;;;;;;;1.50;1.50;;;;;;;;5018249;28;61817;-81
2022/11/19 12:42:46;;;;;;;;;3.75;3.75;;;;;;;;5033627;28;62098;-81
2022/11/19 12:45:35;;;;;;;;;5.00;3.00;;;;;;;;5038715;28;61951;-80
2022/11/19 12:48:15;;;;;;;;;2.00;1.25;;;;;;;;5038719;28;62540;-81
2022/11/19 12:50:40;;;;;;;;;2.75;2.00;;;;;;;;5037198;28;61868;-82
2022/11/19 12:53:24;;;;;;;;;3.00;2.00;;;;;;;;5037671;28;61964;-80
2022/11/19 12:55:52;;;;;;;;;2.25;1.00;;;;;;;;5021318;28;62931;-80
2022/11/19 12:58:26;;;;;;;;;4.75;1.00;;;;;;;;5038928;28;61897;-80
2022/11/19 13:00:57;;;;;;;;;1.00;1.00;;;;;;;;5038176;28;62967;-83
2022/11/19 13:03:45;;;;;;;;;1.00;1.00;;;;;;;;5036361;28;62085;-80
2022/11/19 13:06:14;;;;;;;;;1.00;1.00;;;;;;;;5035270;28;63063;-82
2022/11/19 13:08:48;;;;;;;;;1.50;1.00;;;;;;;;5074815;27;62033;-83
2022/11/19 13:11:13;;;;;;;;;1.50;0.00;;;;;;;;5072875;28;63395;-81
2022/11/19 13:13:43;;;;;;;;;5.00;0.00;;;;;;;;5078216;27;61942;-82
2022/11/19 13:16:19;;;;;;;;;1.25;1.25;;;;;;;;5080014;27;62202;-83
2022/11/19 13:18:46;;;;;;;;;3.00;2.00;;;;;;;;5076676;28;62022;-81
2022/11/19 13:21:15;;;;;;;;;2.00;1.00;;;;;;;;5079536;27;62171;-80
2022/11/19 13:23:42;;;;;;;;;2.25;2.25;;;;;;;;5080898;28;61945;-82
2022/11/19 13:26:22;;;;;;;;;3.00;2.00;;;;;;;;5081252;28;62136;-81
2022/11/19 13:29:03;;;;;;;;;0.00;0.00;;;;;;;;5080604;27;61946;-81
2022/11/19 13:31:33;;;;;;;;;1.00;1.00;;;;;;;;5079428;27;61898;-80
2022/11/19 13:34:27;;;;;;;;;2.50;1.75;;;;;;;;5070295;28;61832;-80
2022/11/19 13:37:02;;;;;;;;;3.25;1.50;;;;;;;;5064866;27;62048;-81
2022/11/19 13:39:31;;;;;;;;;2.50;1.00;;;;;;;;5080764;27;61792;-79
2022/11/19 13:44:42;;;;;;;;;3.25;1.25;;;;;;;;5080639;28;62302;-79
2022/11/19 13:47:30;;;;;;;;;1.00;1.00;;;;;;;;5069069;27;61865;-79
2022/11/19 13:49:59;;;;;;;;;1.00;1.00;;;;;;;;5073418;28;61962;-80
2022/11/19 13:52:35;;;;;;;;;0.25;0.00;;;;;;;;5089478;27;63723;-81
2022/11/19 13:55:00;;;;;;;;;1.00;0.00;;;;;;;;5081956;27;61975;-80
2022/11/19 13:57:32;;;;;;;;;1.00;1.00;;;;;;;;5080041;28;61800;-82
2022/11/19 14:00:17;;;;;;;;;2.00;0.75;;;;;;;;5079254;27;62117;-81
2022/11/19 14:02:52;;;;;;;;;3.25;1.00;;;;;;;;5078427;28;62972;-80
2022/11/19 14:05:35;;;;;;;;;2.00;1.00;;;;;;;;5079747;28;61858;-81
2022/11/19 14:08:01;;;;;;;;;2.50;1.00;;;;;;;;5080280;27;61782;-82
2022/11/19 14:10:35;;;;;;;;;2.00;2.00;;;;;;;;5079068;27;61824;-81
2022/11/19 14:13:03;;;;;;;;;0.75;0.75;;;;;;;;5079521;27;61946;-82
2022/11/19 14:27:20;;;;;;;;;0.50;0.50;;;;;;;;5080809;27;62096;-81
2022/11/19 14:29:46;;;;;;;;;2.75;1.75;;;;;;;;5080288;27;61934;-80
2022/11/19 14:32:11;;;;;;;;;1.75;0.00;;;;;;;;5096101;27;61997;-81
2022/11/19 14:35:06;;;;;;;;;0.00;0.00;;;;;;;;5094329;27;62070;-83
2022/11/19 14:37:46;;;;;;;;;0.00;0.00;;;;;;;;5075746;27;62173;-83
2022/11/19 14:40:11;;;;;;;;;0.00;0.00;;;;;;;;5079699;28;62105;-82
2022/11/19 14:44:07;;;;;;;;;1.00;0.25;;;;;;;;5078306;27;62075;-82
2022/11/19 14:46:02;;;;;;;;;1.25;0.00;;;;;;;;5077491;28;61755;-83
2022/11/19 14:48:39;;;;;;;;;1.25;1.00;;;;;;;;5079733;28;62154;-82
2022/11/19 14:51:09;;;;;;;;;1.25;1.25;;;;;;;;5078030;27;63401;-82
2022/11/19 14:53:36;;;;;;;;;0.75;0.75;;;;;;;;5077919;27;61830;-82
2022/11/19 14:56:09;;;;;;;;;0.00;0.00;;;;;;;;5092148;27;64336;-82
2022/11/19 14:58:34;;;;;;;;;1.00;1.00;;;;;;;;5079150;27;61901;-84
2022/11/19 15:01:08;;;;;;;;;1.00;1.00;;;;;;;;5080249;28;62120;-82
2022/11/19 15:03:36;;;;;;;;;1.00;1.00;;;;;;;;5078248;27;61998;-82
2022/11/19 15:06:04;;;;;;;;;1.00;0.00;;;;;;;;5079073;27;62626;-82
2022/11/19 15:08:41;;;;;;;;;0.00;0.00;;;;;;;;5077259;27;61777;-82
2022/11/19 15:11:11;;;;;;;;;1.00;0.00;;;;;;;;5078431;28;61898;-82
2022/11/19 15:13:46;;;;;;;;;0.00;0.00;;;;;;;;5077582;27;61927;-80
2022/11/19 15:16:12;;;;;;;;;1.00;1.00;;;;;;;;5078438;28;61963;-79
2022/11/19 15:18:40;;;;;;;;;1.00;1.00;;;;;;;;5075999;28;62076;-80
2022/11/19 15:21:30;;;;;;;;;1.50;0.00;;;;;;;;5080074;27;61956;-79
2022/11/19 15:23:55;;;;;;;;;0.25;0.25;;;;;;;;5080143;28;61901;-80
2022/11/19 15:26:20;;;;;;;;;0.25;0.25;;;;;;;;5080102;28;61978;-79
2022/11/19 15:29:01;;;;;;;;;2.00;1.00;;;;;;;;5078216;27;61759;-79